Time;durP1;ratioP1;P1;durP2;ratioP2;P2;SDS_P1;SDS_P2;PMS_P1;PMS_P2;Temp;Humidity;BMP_temperature;BMP_pressure;BME280_temperature;BME280_humidity;BME280_pressure;Samples;Min_cycle;Max_cycle;Signal;HPM_P1;HPM_P2
2021/07/12 00:02:08;;;;;;;2.35;1.30;;;18.90;99.90;;;;;;5067970;28;20036;-76
2021/07/12 00:04:34;;;;;;;4.00;1.70;;;18.90;99.90;;;;;;5067862;28;20024;-76
2021/07/12 00:06:59;;;;;;;6.82;1.75;;;18.80;99.90;;;;;;5068355;28;20028;-79
2021/07/12 00:09:25;;;;;;;1.52;0.93;;;18.70;99.80;;;;;;5068218;28;20078;-78
2021/07/12 00:11:50;;;;;;;4.07;1.70;;;18.70;99.90;;;;;;5049300;28;20028;-77
2021/07/12 00:14:16;;;;;;;3.45;1.00;;;18.60;99.90;;;;;;5049168;28;20021;-77
2021/07/12 00:16:42;;;;;;;3.38;1.20;;;18.60;99.70;;;;;;5067598;28;20021;-77
2021/07/12 00:19:07;;;;;;;4.35;1.00;;;18.60;99.70;;;;;;5050285;28;20063;-76
2021/07/12 00:21:33;;;;;;;5.50;1.05;;;18.50;99.70;;;;;;5067721;28;20434;-76
2021/07/12 00:23:59;;;;;;;2.15;1.20;;;18.50;99.90;;;;;;5067413;28;20034;-77
2021/07/12 00:26:25;;;;;;;10.18;1.10;;;18.50;99.90;;;;;;5067443;28;20048;-76
2021/07/12 00:28:51;;;;;;;5.60;1.23;;;18.40;99.90;;;;;;5067376;28;20029;-75
2021/07/12 00:31:17;;;;;;;3.08;1.02;;;18.40;99.90;;;;;;5049828;28;20496;-76
2021/07/12 00:33:43;;;;;;;1.92;1.02;;;18.30;99.90;;;;;;5049488;28;20036;-78
2021/07/12 00:36:09;;;;;;;4.10;0.80;;;18.30;99.90;;;;;;5067404;28;20086;-76
2021/07/12 00:38:35;;;;;;;13.27;1.20;;;18.30;99.90;;;;;;5049074;28;20623;-77
2021/07/12 00:41:01;;;;;;;2.22;1.30;;;18.20;99.90;;;;;;5067418;28;20020;-77
2021/07/12 00:43:27;;;;;;;7.65;1.70;;;18.30;99.90;;;;;;5049187;28;20032;-80
2021/07/12 00:45:53;;;;;;;2.38;1.17;;;18.20;99.90;;;;;;5049113;28;20028;-79
2021/07/12 00:48:19;;;;;;;6.35;1.40;;;18.20;99.90;;;;;;5067364;28;20044;-79
2021/07/12 00:50:46;;;;;;;5.85;1.52;;;18.20;99.90;;;;;;5048921;28;20131;-78
2021/07/12 00:53:12;;;;;;;2.40;1.20;;;18.20;99.90;;;;;;5049299;28;20032;-79
2021/07/12 00:55:48;;;;;;;3.03;1.60;;;18.10;99.90;;;;;;5067211;28;20059;-78
2021/07/12 00:58:17;;;;;;;4.70;1.20;;;18.20;99.90;;;;;;5048164;28;20067;-77
2021/07/12 01:00:45;;;;;;;1.95;1.10;;;18.10;99.90;;;;;;5049348;28;20025;-77
2021/07/12 01:03:13;;;;;;;2.97;1.40;;;18.10;99.90;;;;;;5049145;28;20078;-76
2021/07/12 01:05:40;;;;;;;4.32;1.40;;;18.10;99.90;;;;;;5048712;28;20116;-76
2021/07/12 01:08:06;;;;;;;6.80;1.42;;;18.10;99.90;;;;;;5048699;28;20040;-76
2021/07/12 01:10:33;;;;;;;6.25;1.23;;;18.10;99.90;;;;;;5048694;28;20033;-76
2021/07/12 01:13:20;;;;;;;2.83;1.40;;;18.10;99.90;;;;;;5048608;28;20500;-76
2021/07/12 01:16:01;;;;;;;6.70;1.30;;;18.20;99.90;;;;;;5066742;28;20028;-76
2021/07/12 01:18:52;;;;;;;5.43;1.30;;;18.20;99.90;;;;;;5048682;28;20043;-75
2021/07/12 01:21:49;;;;;;;5.97;1.20;;;18.20;99.80;;;;;;5065742;28;20108;-76
2021/07/12 01:24:28;;;;;;;3.63;1.10;;;18.10;99.50;;;;;;5066584;28;20052;-76
2021/07/12 01:27:19;;;;;;;6.28;2.00;;;18.10;99.90;;;;;;5065953;28;20039;-76
2021/07/12 01:29:53;;;;;;;2.28;1.10;;;18.00;99.90;;;;;;5048138;28;20029;-75
2021/07/12 01:32:36;;;;;;;4.93;1.05;;;18.00;99.90;;;;;;5066444;28;20036;-79
2021/07/12 01:35:25;;;;;;;2.20;1.08;;;18.00;99.90;;;;;;5048714;28;20040;-79
2021/07/12 01:37:55;;;;;;;4.38;1.42;;;17.90;99.90;;;;;;5065497;28;20114;-81
2021/07/12 01:40:44;;;;;;;3.28;1.30;;;17.90;99.90;;;;;;5048631;28;20036;-77
2021/07/12 01:43:32;;;;;;;3.67;1.35;;;18.00;99.90;;;;;;5065607;28;20417;-78
2021/07/12 01:46:16;;;;;;;2.10;1.08;;;18.00;99.90;;;;;;5065530;28;20580;-78
2021/07/12 01:49:18;;;;;;;4.85;1.25;;;18.00;99.90;;;;;;5046924;28;20119;-78
2021/07/12 01:52:08;;;;;;;4.68;1.80;;;18.00;99.90;;;;;;5057627;28;20076;-80
2021/07/12 01:54:39;;;;;;;4.05;0.93;;;18.10;99.90;;;;;;5059292;28;20135;-78
2021/07/12 01:57:17;;;;;;;7.10;1.55;;;18.10;99.60;;;;;;5057264;28;20046;-79
2021/07/12 02:00:11;;;;;;;8.90;1.35;;;18.20;97.90;;;;;;5045204;28;20072;-82
2021/07/12 02:02:40;;;;;;;2.80;1.45;;;18.40;97.40;;;;;;5065758;28;20580;-80
2021/07/12 02:05:18;;;;;;;3.03;1.52;;;18.40;96.90;;;;;;5041652;28;20037;-80
2021/07/12 02:07:46;;;;;;;3.65;1.08;;;18.50;96.80;;;;;;5043267;28;20110;-80
2021/07/12 02:10:13;;;;;;;3.17;1.20;;;18.50;96.30;;;;;;5042358;28;20037;-80
2021/07/12 02:12:41;;;;;;;4.30;1.10;;;18.50;96.10;;;;;;5041819;28;20043;-77
2021/07/12 02:15:07;;;;;;;3.45;1.27;;;18.60;95.80;;;;;;5043192;28;20163;-79
2021/07/12 02:17:34;;;;;;;7.68;1.27;;;18.50;95.80;;;;;;5041265;28;20037;-80
2021/07/12 02:20:01;;;;;;;2.30;1.20;;;18.50;96.50;;;;;;5045648;28;20706;-78
2021/07/12 02:22:28;;;;;;;4.63;2.33;;;18.50;96.20;;;;;;5042933;28;20126;-78
2021/07/12 02:24:57;;;;;;;10.73;2.08;;;18.60;95.30;;;;;;5039781;28;20041;-77
2021/07/12 02:27:23;;;;;;;3.60;1.70;;;18.60;95.80;;;;;;5041770;28;20503;-81
2021/07/12 02:29:50;;;;;;;3.33;1.80;;;18.60;95.90;;;;;;5043750;28;20033;-78
2021/07/12 02:32:20;;;;;;;3.05;1.70;;;18.60;96.40;;;;;;5046944;28;20037;-78
2021/07/12 02:34:47;;;;;;;4.95;1.65;;;18.60;96.30;;;;;;5045878;28;20034;-79
2021/07/12 02:37:14;;;;;;;4.75;2.03;;;18.60;96.40;;;;;;5066255;28;20097;-80
2021/07/12 02:39:41;;;;;;;7.40;1.98;;;18.60;96.80;;;;;;5066562;28;20031;-79
2021/07/12 02:42:09;;;;;;;7.93;2.20;;;18.60;97.10;;;;;;5050526;28;20532;-80
2021/07/12 02:44:36;;;;;;;9.02;2.53;;;18.70;97.50;;;;;;5051161;28;20040;-78
2021/07/12 02:47:03;;;;;;;5.03;1.95;;;18.60;97.70;;;;;;5051349;28;20098;-80
2021/07/12 02:49:29;;;;;;;4.53;2.28;;;18.60;97.50;;;;;;5051839;28;20333;-81
2021/07/12 02:51:57;;;;;;;5.50;1.77;;;18.60;97.30;;;;;;5051725;28;20074;-78
2021/07/12 02:54:28;;;;;;;4.15;2.20;;;18.70;97.00;;;;;;5051284;28;20040;-80
2021/07/12 02:56:54;;;;;;;5.25;2.00;;;18.70;97.00;;;;;;5068939;28;20036;-78
2021/07/12 02:59:20;;;;;;;3.58;1.70;;;18.80;97.10;;;;;;5051413;28;20865;-79
2021/07/12 03:01:46;;;;;;;6.13;1.88;;;18.70;97.00;;;;;;5069245;28;20540;-81
2021/07/12 03:04:12;;;;;;;4.03;2.10;;;18.80;96.70;;;;;;5051650;28;20067;-80
2021/07/12 03:06:38;;;;;;;9.10;1.77;;;18.80;96.70;;;;;;5051599;28;20060;-81
2021/07/12 03:09:11;;;;;;;5.18;2.10;;;18.80;96.60;;;;;;5050911;28;20082;-80
2021/07/12 03:12:01;;;;;;;7.18;2.20;;;18.80;96.70;;;;;;5068603;28;20044;-78
2021/07/12 03:14:41;;;;;;;11.52;2.30;;;18.70;97.20;;;;;;5051393;28;20037;-80
2021/07/12 03:17:08;;;;;;;13.07;2.28;;;18.70;96.60;;;;;;5068687;28;20035;-79
2021/07/12 03:19:37;;;;;;;4.63;2.15;;;18.70;96.20;;;;;;5051198;28;20417;-78
2021/07/12 03:22:06;;;;;;;4.30;2.22;;;18.70;96.60;;;;;;5069216;28;20020;-77
2021/07/12 03:24:36;;;;;;;6.32;2.38;;;18.70;96.50;;;;;;5068599;28;20055;-79
2021/07/12 03:27:03;;;;;;;6.55;2.40;;;18.70;97.00;;;;;;5050903;28;20044;-79
2021/07/12 03:29:30;;;;;;;7.13;2.55;;;18.70;97.60;;;;;;5051008;28;20028;-78
2021/07/12 03:32:02;;;;;;;5.70;2.22;;;18.70;97.70;;;;;;5051013;28;20028;-80
2021/07/12 03:34:29;;;;;;;6.07;2.22;;;18.70;97.70;;;;;;5050692;28;20032;-79
2021/07/12 03:36:56;;;;;;;4.10;2.25;;;18.70;97.90;;;;;;5050599;28;20728;-79
2021/07/12 03:39:26;;;;;;;3.72;2.05;;;18.60;98.20;;;;;;5051487;28;20143;-79
2021/07/12 03:41:52;;;;;;;6.47;2.63;;;18.60;98.20;;;;;;5068982;28;20834;-78
2021/07/12 03:44:19;;;;;;;3.95;2.58;;;18.60;98.20;;;;;;5050489;28;20044;-79
2021/07/12 03:46:45;;;;;;;4.63;2.70;;;18.60;98.40;;;;;;5068453;28;20393;-79
2021/07/12 03:49:17;;;;;;;4.55;2.65;;;18.60;98.40;;;;;;5049495;28;20016;-82
2021/07/12 03:51:49;;;;;;;6.22;2.20;;;18.70;98.70;;;;;;5050458;28;20036;-79
2021/07/12 03:54:16;;;;;;;5.60;2.72;;;18.80;98.90;;;;;;5068266;28;20051;-79
2021/07/12 03:56:41;;;;;;;6.03;2.67;;;18.80;98.20;;;;;;5050285;28;20477;-79
2021/07/12 03:59:07;;;;;;;5.00;2.58;;;18.80;97.70;;;;;;5068313;28;20115;-78
2021/07/12 04:01:33;;;;;;;6.95;2.90;;;18.90;97.90;;;;;;5049937;28;20543;-79
2021/07/12 04:03:59;;;;;;;6.15;4.55;;;19.00;98.10;;;;;;5068082;28;20095;-78
2021/07/12 04:06:25;;;;;;;6.18;3.95;;;19.10;97.90;;;;;;5067677;28;20032;-78
2021/07/12 04:08:50;;;;;;;7.03;2.13;;;19.30;97.00;;;;;;5050169;28;20024;-79
2021/07/12 04:11:17;;;;;;;5.25;3.00;;;19.50;96.60;;;;;;5049585;28;20056;-79
2021/07/12 04:13:43;;;;;;;7.55;3.40;;;19.70;96.50;;;;;;5050280;28;20024;-78
2021/07/12 04:16:09;;;;;;;6.20;3.35;;;19.90;96.30;;;;;;5049641;28;20504;-78
2021/07/12 04:18:36;;;;;;;5.05;2.92;;;20.20;96.00;;;;;;5067619;28;20058;-79
2021/07/12 04:21:03;;;;;;;3.90;2.45;;;20.30;96.20;;;;;;5068001;28;20032;-79
2021/07/12 04:23:28;;;;;;;2.95;2.20;;;20.50;95.90;;;;;;5050112;28;20033;-78
2021/07/12 04:25:54;;;;;;;4.85;2.20;;;20.60;95.60;;;;;;5049308;28;20036;-78
2021/07/12 04:28:20;;;;;;;4.03;2.50;;;20.70;95.90;;;;;;5049923;28;20039;-78
2021/07/12 04:30:45;;;;;;;4.55;2.83;;;20.80;95.70;;;;;;5067327;28;20028;-79
2021/07/12 04:33:11;;;;;;;7.15;2.35;;;21.00;95.30;;;;;;5049440;28;20032;-79
2021/07/12 04:35:37;;;;;;;9.02;3.15;;;21.20;95.30;;;;;;5049574;28;20040;-78
2021/07/12 04:38:03;;;;;;;5.93;2.60;;;21.30;94.60;;;;;;5049218;28;20044;-79
2021/07/12 04:40:28;;;;;;;4.72;2.05;;;21.40;94.40;;;;;;5067183;28;20752;-78
2021/07/12 04:42:54;;;;;;;8.38;3.25;;;21.50;94.30;;;;;;5067089;28;20887;-79
2021/07/12 04:45:20;;;;;;;7.85;3.65;;;21.60;94.00;;;;;;5049563;28;20139;-80
2021/07/12 04:47:45;;;;;;;6.07;2.55;;;21.70;94.00;;;;;;5049235;28;20056;-79
2021/07/12 04:50:12;;;;;;;6.82;3.13;;;21.80;93.70;;;;;;5049115;28;20032;-80
2021/07/12 04:52:37;;;;;;;3.63;2.58;;;22.00;94.00;;;;;;5049321;28;20082;-80
2021/07/12 04:55:08;;;;;;;5.05;2.50;;;22.10;94.00;;;;;;5048690;28;20036;-79
2021/07/12 04:57:35;;;;;;;8.65;2.70;;;22.30;93.60;;;;;;5049256;28;20029;-79
2021/07/12 05:00:01;;;;;;;5.20;2.53;;;22.50;92.90;;;;;;5066796;28;20069;-79
2021/07/12 05:02:27;;;;;;;8.85;2.80;;;22.60;92.40;;;;;;5048861;28;20493;-80
2021/07/12 05:04:54;;;;;;;9.93;4.07;;;22.80;91.80;;;;;;5049092;28;20218;-79
2021/07/12 05:07:20;;;;;;;5.95;2.45;;;23.10;91.00;;;;;;5048971;28;20032;-78
2021/07/12 05:09:45;;;;;;;5.72;2.78;;;23.50;90.50;;;;;;5066143;28;20024;-79
2021/07/12 05:12:15;;;;;;;8.23;2.75;;;23.80;90.30;;;;;;5048888;28;20025;-79
2021/07/12 05:14:42;;;;;;;5.55;2.75;;;23.90;89.70;;;;;;5066823;28;20103;-78
2021/07/12 05:17:09;;;;;;;3.97;2.72;;;24.10;88.30;;;;;;5066832;28;20060;-79
2021/07/12 05:19:35;;;;;;;5.13;3.10;;;24.20;87.90;;;;;;5048455;28;20090;-79
2021/07/12 05:22:01;;;;;;;5.47;3.67;;;24.10;87.70;;;;;;5048377;28;20055;-80
2021/07/12 05:24:26;;;;;;;4.50;2.47;;;24.20;87.50;;;;;;5048455;28;20032;-78
2021/07/12 05:26:52;;;;;;;3.70;2.70;;;24.20;83.80;;;;;;5048604;28;20520;-79
2021/07/12 05:29:18;;;;;;;4.65;2.88;;;24.30;81.10;;;;;;5048618;28;20028;-79
2021/07/12 05:31:45;;;;;;;3.55;2.42;;;24.30;80.50;;;;;;5066268;28;20032;-79
2021/07/12 05:34:10;;;;;;;5.93;2.40;;;24.30;79.70;;;;;;5048702;28;20028;-78
2021/07/12 05:36:36;;;;;;;5.78;2.85;;;24.50;81.60;;;;;;5048290;28;20540;-78
2021/07/12 05:39:03;;;;;;;8.75;3.50;;;24.50;86.00;;;;;;5065744;28;20417;-80
2021/07/12 05:41:29;;;;;;;5.57;2.83;;;24.60;86.60;;;;;;5048655;28;20033;-79
2021/07/12 05:43:55;;;;;;;10.80;3.33;;;24.60;85.70;;;;;;5066200;28;20358;-77
2021/07/12 05:46:20;;;;;;;6.75;2.72;;;24.60;84.00;;;;;;5066515;28;20676;-79
2021/07/12 05:48:46;;;;;;;6.80;2.95;;;24.60;83.90;;;;;;5048647;28;20033;-80
2021/07/12 05:51:12;;;;;;;4.45;2.97;;;24.70;84.50;;;;;;5048173;28;20039;-79
2021/07/12 05:53:37;;;;;;;8.10;3.25;;;24.80;84.70;;;;;;5047970;28;20035;-80
2021/07/12 05:56:03;;;;;;;5.13;3.17;;;25.10;83.40;;;;;;5066162;28;20624;-80
2021/07/12 05:58:30;;;;;;;4.88;2.95;;;25.50;81.50;;;;;;5048172;28;20033;-80
2021/07/12 06:00:56;;;;;;;5.25;2.10;;;26.20;79.20;;;;;;5065811;28;20032;-79
2021/07/12 06:03:22;;;;;;;5.00;2.72;;;27.20;74.70;;;;;;5048444;28;20044;-80
2021/07/12 06:05:48;;;;;;;4.07;2.25;;;27.70;71.80;;;;;;5048269;28;20025;-80
2021/07/12 06:08:14;;;;;;;4.55;2.67;;;28.10;71.40;;;;;;5065561;28;20037;-80
2021/07/12 06:10:40;;;;;;;4.50;2.65;;;29.00;67.70;;;;;;5066103;28;20703;-79
2021/07/12 06:13:06;;;;;;;3.92;2.58;;;29.80;62.00;;;;;;5052057;28;20121;-80
2021/07/12 06:15:32;;;;;;;3.70;2.28;;;30.70;58.50;;;;;;5052298;28;20043;-81
2021/07/12 06:17:57;;;;;;;9.05;2.85;;;31.70;56.00;;;;;;5051808;28;20036;-79
2021/07/12 06:20:23;;;;;;;8.60;2.80;;;32.60;52.40;;;;;;5052455;28;20108;-81
2021/07/12 06:22:49;;;;;;;3.67;2.47;;;33.50;48.60;;;;;;5052120;28;20507;-81
2021/07/12 06:25:17;;;;;;;10.13;2.67;;;34.00;45.70;;;;;;5052218;28;20024;-81
2021/07/12 06:27:43;;;;;;;7.75;2.35;;;34.40;44.40;;;;;;5052280;28;20144;-81
2021/07/12 06:30:09;;;;;;;6.35;3.03;;;35.00;43.70;;;;;;5052241;28;20135;-81
2021/07/12 06:32:35;;;;;;;6.80;3.15;;;34.70;43.30;;;;;;5051730;28;20020;-81
2021/07/12 06:35:02;;;;;;;6.03;2.83;;;34.30;43.00;;;;;;5069934;28;20043;-81
2021/07/12 06:37:28;;;;;;;8.77;2.67;;;34.00;43.70;;;;;;5069647;28;20421;-81
2021/07/12 06:39:54;;;;;;;5.82;2.80;;;34.00;43.60;;;;;;5069219;28;20072;-80
2021/07/12 06:42:19;;;;;;;7.78;2.80;;;34.20;44.70;;;;;;5069878;28;20024;-81
2021/07/12 06:44:45;;;;;;;9.38;3.03;;;34.90;43.90;;;;;;5069430;28;20086;-80
2021/07/12 06:47:10;;;;;;;4.68;2.63;;;35.30;41.80;;;;;;5069657;28;20102;-79
2021/07/12 06:49:36;;;;;;;4.93;2.65;;;34.90;41.40;;;;;;5069178;28;20096;-81
2021/07/12 06:52:02;;;;;;;5.25;2.75;;;34.40;43.10;;;;;;5052003;28;20028;-80
2021/07/12 06:54:28;;;;;;;8.13;2.47;;;33.80;44.60;;;;;;5050831;28;20107;-80
2021/07/12 06:56:53;;;;;;;7.55;3.50;;;33.00;46.60;;;;;;5051634;28;20032;-80
2021/07/12 06:59:19;;;;;;;12.70;3.30;;;32.20;48.20;;;;;;5069458;28;20058;-80
2021/07/12 07:01:45;;;;;;;6.63;3.63;;;31.60;49.90;;;;;;5050792;28;20071;-80
2021/07/12 07:04:12;;;;;;;8.85;3.30;;;31.70;48.30;;;;;;5069408;28;20837;-80
2021/07/12 07:06:38;;;;;;;6.38;3.38;;;32.30;48.30;;;;;;5069166;28;20123;-79
2021/07/12 07:09:05;;;;;;;11.73;3.10;;;33.10;47.20;;;;;;5068449;28;20033;-79
2021/07/12 07:11:31;;;;;;;12.68;2.90;;;33.60;46.80;;;;;;5069308;28;20029;-80
2021/07/12 07:13:58;;;;;;;3.38;2.88;;;33.80;46.20;;;;;;5051321;28;20111;-80
2021/07/12 07:16:24;;;;;;;5.93;3.63;;;33.60;45.00;;;;;;5050873;28;20035;-80
2021/07/12 07:18:50;;;;;;;11.40;3.92;;;33.60;44.30;;;;;;5050581;28;20772;-79
2021/07/12 07:21:16;;;;;;;7.28;2.78;;;34.10;44.60;;;;;;5051405;28;20067;-80
2021/07/12 07:23:42;;;;;;;6.43;2.88;;;34.60;43.90;;;;;;5067993;28;20025;-79
2021/07/12 07:26:12;;;;;;;8.30;3.05;;;35.10;44.30;;;;;;5050987;28;20146;-80
2021/07/12 07:28:39;;;;;;;6.47;3.08;;;35.80;40.40;;;;;;5051029;28;20029;-80
2021/07/12 07:31:05;;;;;;;3.50;2.90;;;35.70;40.50;;;;;;5068588;28;20024;-80
2021/07/12 07:33:30;;;;;;;6.97;3.15;;;35.70;39.80;;;;;;5050881;28;20223;-80
2021/07/12 07:35:57;;;;;;;6.32;2.90;;;35.90;39.30;;;;;;5050466;28;20036;-80
2021/07/12 07:38:23;;;;;;;8.18;3.00;;;35.80;39.90;;;;;;5050392;28;20458;-79
2021/07/12 07:40:49;;;;;;;5.82;3.05;;;35.90;39.20;;;;;;5068455;28;20056;-79
2021/07/12 07:43:14;;;;;;;5.15;3.17;;;35.70;38.50;;;;;;5050336;28;20115;-79
2021/07/12 07:45:41;;;;;;;4.88;2.85;;;35.70;40.00;;;;;;5050391;28;20028;-80
2021/07/12 07:48:07;;;;;;;4.68;3.22;;;35.40;38.90;;;;;;5068575;28;20036;-78
2021/07/12 07:50:36;;;;;;;4.60;3.10;;;34.90;40.30;;;;;;5050491;28;20095;-79
2021/07/12 07:53:03;;;;;;;9.48;3.00;;;34.10;42.00;;;;;;5067775;28;20503;-78
2021/07/12 07:55:29;;;;;;;7.88;3.20;;;33.70;43.10;;;;;;5068107;28;20066;-80
2021/07/12 07:57:54;;;;;;;5.88;2.60;;;33.20;43.60;;;;;;5068366;28;20041;-79
2021/07/12 08:00:21;;;;;;;7.72;2.88;;;32.70;44.00;;;;;;5068061;28;20028;-79
2021/07/12 08:02:46;;;;;;;5.20;2.75;;;32.10;45.00;;;;;;5068176;28;20032;-79
2021/07/12 08:05:12;;;;;;;10.57;3.72;;;31.50;46.90;;;;;;5050416;28;20085;-80
2021/07/12 08:07:38;;;;;;;12.27;3.13;;;31.10;47.60;;;;;;5067389;28;20034;-79
2021/07/12 08:10:10;;;;;;;5.68;3.75;;;30.90;49.10;;;;;;5068072;28;20032;-79
2021/07/12 08:12:36;;;;;;;10.30;3.50;;;30.60;49.70;;;;;;5068172;28;20021;-78
2021/07/12 08:15:02;;;;;;;6.35;3.25;;;30.40;50.70;;;;;;5049766;28;20086;-79
2021/07/12 08:17:28;;;;;;;11.07;3.55;;;30.20;50.90;;;;;;5049723;28;20449;-78
2021/07/12 08:19:53;;;;;;;6.85;3.10;;;30.20;51.10;;;;;;5067561;28;20086;-79
2021/07/12 08:22:19;;;;;;;9.00;3.88;;;29.90;51.20;;;;;;5067595;28;20081;-79
2021/07/12 08:24:44;;;;;;;4.80;3.10;;;29.90;51.80;;;;;;5049475;28;20036;-78
2021/07/12 08:27:10;;;;;;;10.98;3.72;;;30.10;53.10;;;;;;5049843;28;20465;-79
2021/07/12 08:29:36;;;;;;;5.47;3.70;;;30.00;52.70;;;;;;5067759;28;20029;-78
2021/07/12 08:32:02;;;;;;;6.30;3.55;;;29.90;52.60;;;;;;5049526;28;20485;-78
2021/07/12 08:34:27;;;;;;;7.20;3.13;;;29.60;52.30;;;;;;5048350;28;20024;-79
2021/07/12 08:36:53;;;;;;;12.40;3.58;;;29.30;53.70;;;;;;5066527;28;20048;-78
2021/07/12 08:39:20;;;;;;;4.95;3.38;;;29.30;54.90;;;;;;5049744;28;20481;-78
2021/07/12 08:41:46;;;;;;;7.90;3.63;;;29.10;55.50;;;;;;5049084;28;20025;-77
2021/07/12 08:44:12;;;;;;;10.85;4.03;;;28.90;56.00;;;;;;5067341;28;20507;-79
2021/07/12 08:46:38;;;;;;;5.70;4.22;;;29.00;56.40;;;;;;5066970;28;20016;-79
2021/07/12 08:49:04;;;;;;;5.43;3.72;;;28.80;56.10;;;;;;5067512;28;20058;-78
2021/07/12 08:51:29;;;;;;;5.95;3.78;;;28.70;57.10;;;;;;5066629;28;20810;-78
2021/07/12 08:53:56;;;;;;;9.27;3.63;;;28.70;58.30;;;;;;5067428;28;20028;-78
2021/07/12 08:56:22;;;;;;;7.78;4.50;;;28.70;58.20;;;;;;5067258;28;20024;-79
2021/07/12 08:58:48;;;;;;;8.63;4.22;;;28.70;58.00;;;;;;5067018;28;20455;-79
2021/07/12 09:01:15;;;;;;;6.55;4.53;;;28.50;59.00;;;;;;5049158;28;20020;-78
2021/07/12 09:03:46;;;;;;;6.10;3.75;;;28.60;59.70;;;;;;5049025;28;20565;-78
2021/07/12 09:06:17;;;;;;;7.63;3.83;;;28.60;59.60;;;;;;5066490;28;20100;-78
2021/07/12 09:08:58;;;;;;;8.05;3.78;;;28.60;59.60;;;;;;5048735;28;20028;-78
2021/07/12 09:11:28;;;;;;;15.05;3.88;;;28.70;59.80;;;;;;5048982;28;20189;-78
2021/07/12 09:13:55;;;;;;;6.65;4.43;;;28.80;58.60;;;;;;5048757;28;20082;-78
2021/07/12 09:16:41;;;;;;;7.10;4.40;;;28.90;59.00;;;;;;5048478;28;20086;-78
2021/07/12 09:19:22;;;;;;;7.67;4.10;;;29.20;58.40;;;;;;5066750;28;20036;-80
2021/07/12 09:22:08;;;;;;;6.05;3.40;;;29.10;58.50;;;;;;5065670;28;20264;-80
2021/07/12 09:25:05;;;;;;;5.32;3.85;;;29.30;58.00;;;;;;5066158;28;20021;-79
2021/07/12 09:27:32;;;;;;;;;;;29.70;58.70;;;;;;5067084;28;20044;-80
2021/07/12 09:30:04;;;;;;;5.28;3.92;;;29.90;57.00;;;;;;5048628;28;19944;-79
2021/07/12 09:32:33;;;;;;;8.27;3.97;;;30.10;56.00;;;;;;5048242;28;20497;-79
2021/07/12 09:35:12;;;;;;;11.00;4.68;;;30.30;55.60;;;;;;5048646;28;20030;-79
2021/07/12 09:37:42;;;;;;;8.98;3.88;;;30.40;55.40;;;;;;5047986;28;20048;-79
2021/07/12 09:40:14;;;;;;;9.57;3.22;;;30.80;54.80;;;;;;5066324;28;20107;-79
2021/07/12 09:42:51;;;;;;;5.85;3.75;;;31.20;54.90;;;;;;5066107;28;20016;-79
2021/07/12 09:45:19;;;;;;;6.88;3.88;;;31.50;53.50;;;;;;5048513;28;20063;-79
2021/07/12 09:47:46;;;;;;;6.20;4.88;;;31.60;53.50;;;;;;5048111;28;20032;-79
2021/07/12 09:50:21;;;;;;;9.07;4.70;;;31.50;54.00;;;;;;5048731;28;20048;-79
2021/07/12 09:52:58;;;;;;;7.82;3.92;;;31.30;54.40;;;;;;5065625;28;20036;-79
2021/07/12 09:55:24;;;;;;;6.95;4.50;;;31.40;54.00;;;;;;5048366;28;20469;-78
2021/07/12 09:58:14;;;;;;;13.43;4.65;;;31.50;53.50;;;;;;5047847;28;20527;-80
2021/07/12 10:00:57;;;;;;;20.00;4.88;;;31.50;53.30;;;;;;5048091;28;20412;-79
2021/07/12 10:03:23;;;;;;;15.23;4.45;;;31.70;52.70;;;;;;5048051;28;20078;-79
2021/07/12 10:05:51;;;;;;;8.55;3.80;;;32.00;51.90;;;;;;5065329;28;20065;-79
2021/07/12 10:08:17;;;;;;;9.88;4.68;;;32.30;52.20;;;;;;5066327;28;20024;-79
2021/07/12 10:10:43;;;;;;;9.02;4.38;;;32.40;50.90;;;;;;5048460;28;20240;-79
2021/07/12 10:13:09;;;;;;;12.20;4.88;;;32.50;49.30;;;;;;5048106;28;20505;-79
2021/07/12 10:15:35;;;;;;;9.90;4.97;;;32.60;50.00;;;;;;5047591;28;20020;-80
2021/07/12 10:18:01;;;;;;;10.30;4.60;;;32.40;49.40;;;;;;5048029;28;20078;-79
2021/07/12 10:20:28;;;;;;;7.75;4.30;;;32.10;48.80;;;;;;5047427;28;20040;-78
2021/07/12 10:22:58;;;;;;;7.13;4.18;;;31.70;52.10;;;;;;5047790;28;20496;-79
2021/07/12 10:25:28;;;;;;;8.73;4.13;;;31.50;52.10;;;;;;5066296;28;20025;-80
2021/07/12 10:27:56;;;;;;;8.85;4.07;;;31.70;51.30;;;;;;5047716;28;20067;-78
2021/07/12 10:30:32;;;;;;;7.32;4.60;;;31.70;50.50;;;;;;5047959;28;20543;-79
2021/07/12 10:33:05;;;;;;;7.68;4.22;;;31.50;51.80;;;;;;5047775;28;20175;-79
2021/07/12 10:35:45;;;;;;;14.10;4.40;;;31.40;51.60;;;;;;5065567;28;20037;-79
2021/07/12 10:38:13;;;;;;;11.05;4.15;;;31.50;49.90;;;;;;5047643;28;20059;-78
2021/07/12 10:40:50;;;;;;;13.65;4.75;;;31.40;50.80;;;;;;5047514;28;20118;-79
2021/07/12 10:43:49;;;;;;;13.15;4.53;;;31.40;50.70;;;;;;5047952;28;20054;-79
2021/07/12 10:46:24;;;;;;;10.40;4.68;;;31.40;50.40;;;;;;5065406;28;20064;-79
2021/07/12 10:48:50;;;;;;;7.70;4.23;;;31.20;50.70;;;;;;5065457;28;20075;-79
2021/07/12 10:51:24;;;;;;;6.28;3.80;;;31.10;50.00;;;;;;5047703;28;20377;-79
2021/07/12 10:53:57;;;;;;;6.20;4.18;;;31.20;48.60;;;;;;5066193;28;20727;-79
2021/07/12 10:56:40;;;;;;;14.32;3.72;;;31.30;47.80;;;;;;5047369;28;20025;-79
2021/07/12 10:59:06;;;;;;;14.30;4.00;;;31.20;49.50;;;;;;5050788;28;20394;-80
2021/07/12 11:01:41;;;;;;;12.55;4.43;;;31.20;49.10;;;;;;5051353;28;20166;-79
2021/07/12 11:04:30;;;;;;;11.43;4.78;;;31.40;50.40;;;;;;5050817;28;20385;-79
2021/07/12 11:06:56;;;;;;;16.25;3.88;;;31.60;49.30;;;;;;5051146;28;20050;-80
2021/07/12 11:09:51;;;;;;;12.95;4.35;;;31.70;50.00;;;;;;5069146;28;20450;-79
2021/07/12 11:13:00;;;;;;;12.77;3.95;;;31.80;49.40;;;;;;5069036;28;20024;-79
2021/07/12 11:15:27;;;;;;;10.45;3.80;;;31.80;49.60;;;;;;5033898;28;20067;-79
2021/07/12 11:18:01;;;;;;;9.63;4.72;;;31.70;49.90;;;;;;5050727;28;20042;-79
2021/07/12 11:20:39;;;;;;;21.20;4.25;;;31.70;50.50;;;;;;5068140;28;20036;-79
2021/07/12 11:23:05;;;;;;;11.13;4.10;;;31.60;50.00;;;;;;5051008;28;20040;-79
2021/07/12 11:25:41;;;;;;;7.72;4.40;;;31.60;48.50;;;;;;5068893;28;20028;-78
2021/07/12 11:28:10;;;;;;;8.80;3.72;;;31.60;49.20;;;;;;5068823;28;20039;-78
2021/07/12 11:30:36;;;;;;;15.45;4.40;;;31.20;48.30;;;;;;5068500;28;20366;-79
2021/07/12 11:33:02;;;;;;;16.75;4.28;;;31.20;49.40;;;;;;5050910;28;20029;-79
2021/07/12 11:35:28;;;;;;;12.65;4.65;;;31.30;49.30;;;;;;5050016;28;20036;-79
2021/07/12 11:38:05;;;;;;;8.10;3.83;;;31.30;48.90;;;;;;5050498;28;20048;-78
2021/07/12 11:40:31;;;;;;;12.63;4.45;;;31.30;50.30;;;;;;5068254;28;20025;-78
2021/07/12 11:42:57;;;;;;;7.43;4.18;;;31.30;50.10;;;;;;5050482;28;20029;-79
2021/07/12 11:45:23;;;;;;;8.02;4.22;;;31.20;50.70;;;;;;5050151;28;20021;-78
2021/07/12 11:47:57;;;;;;;14.73;4.57;;;31.20;50.90;;;;;;5050603;28;20516;-79
2021/07/12 11:50:22;;;;;;;15.45;4.85;;;31.50;53.00;;;;;;5068130;28;20020;-78
2021/07/12 11:52:50;;;;;;;6.70;3.55;;;31.80;50.50;;;;;;5050197;28;20471;-79
2021/07/12 11:55:22;;;;;;;5.88;3.80;;;32.00;49.80;;;;;;5068273;28;20096;-78
2021/07/12 11:57:50;;;;;;;10.25;4.20;;;32.10;50.10;;;;;;5049906;28;20033;-79
2021/07/12 12:00:22;;;;;;;10.98;4.72;;;32.00;48.90;;;;;;5050029;28;20031;-79
2021/07/12 12:03:16;;;;;;;16.08;4.18;;;32.30;48.50;;;;;;5068276;28;20462;-79
2021/07/12 12:05:44;;;;;;;8.38;4.07;;;32.40;48.60;;;;;;5049574;28;20033;-79
2021/07/12 12:08:18;;;;;;;12.55;4.05;;;32.70;48.00;;;;;;5049404;28;20047;-81
2021/07/12 12:10:45;;;;;;;15.93;4.55;;;32.90;44.80;;;;;;5049127;28;20481;-80
2021/07/12 12:13:17;;;;;;;10.82;4.05;;;33.00;45.10;;;;;;5068012;28;20047;-80
2021/07/12 12:15:45;;;;;;;7.20;3.90;;;33.10;44.50;;;;;;5050203;28;20504;-79
2021/07/12 12:18:16;;;;;;;11.60;4.35;;;33.00;45.00;;;;;;5067573;28;20564;-79
2021/07/12 12:20:44;;;;;;;14.75;3.88;;;33.10;45.00;;;;;;5049493;28;20029;-79
2021/07/12 12:23:22;;;;;;;11.82;3.67;;;33.20;44.20;;;;;;5067892;28;20442;-79
2021/07/12 12:25:54;;;;;;;7.57;4.82;;;33.10;44.90;;;;;;5049742;28;20043;-80
2021/07/12 12:28:30;;;;;;;9.93;3.80;;;33.00;44.50;;;;;;5067788;28;20055;-79
2021/07/12 12:31:03;;;;;;;10.52;3.85;;;33.00;45.40;;;;;;5049506;28;20047;-79
2021/07/12 12:33:31;;;;;;;10.35;4.88;;;33.50;43.80;;;;;;5049578;28;20469;-80
2021/07/12 12:35:59;;;;;;;8.85;4.85;;;33.30;45.00;;;;;;5067102;28;20048;-79
2021/07/12 12:38:25;;;;;;;13.48;4.22;;;33.50;45.80;;;;;;5067333;28;20120;-79
2021/07/12 12:41:00;;;;;;;10.80;4.20;;;33.50;45.10;;;;;;5049080;28;20492;-80
2021/07/12 12:43:26;;;;;;;7.30;3.90;;;33.60;44.30;;;;;;5049510;28;20111;-78
2021/07/12 12:45:54;;;;;;;7.25;3.85;;;33.40;43.10;;;;;;5049696;28;20028;-79
2021/07/12 12:48:35;;;;;;;7.70;4.03;;;33.50;44.10;;;;;;5049185;28;20166;-79
2021/07/12 12:51:43;;;;;;;11.93;5.35;;;33.40;44.70;;;;;;5048769;28;20032;-80
2021/07/12 12:54:11;;;;;;;7.90;4.20;;;33.20;44.80;;;;;;5063035;28;20060;-79
2021/07/12 12:56:58;;;;;;;8.27;4.03;;;32.90;45.40;;;;;;5066945;28;20695;-79
2021/07/12 12:59:35;;;;;;;11.32;3.95;;;32.80;45.90;;;;;;5048756;28;20566;-79